createdAt,value
2023-01-25T00:00:07.974Z,33.96
2023-01-25T00:01:28.619Z,34.35
2023-01-25T00:02:30.581Z,32.32
2023-01-25T00:03:32.748Z,32.84
2023-01-25T00:04:34.717Z,32.78
2023-01-25T00:05:36.850Z,35.94
2023-01-25T00:06:38.913Z,34.16
2023-01-25T00:07:40.865Z,33.90
2023-01-25T00:08:42.813Z,34.66
2023-01-25T00:09:44.773Z,34.63
2023-01-25T00:10:51.630Z,33.42
2023-01-25T00:11:56.374Z,33.51
2023-01-25T00:12:58.622Z,35.16
2023-01-25T00:14:00.725Z,32.48
2023-01-25T00:15:02.695Z,32.87
2023-01-25T00:16:05.396Z,32.93
2023-01-25T00:17:07.359Z,33.14
2023-01-25T00:18:09.463Z,32.08
2023-01-25T00:19:11.982Z,30.87
2023-01-25T00:20:14.323Z,32.44
2023-01-25T00:21:20.348Z,33.66
2023-01-25T00:22:22.375Z,34.63
2023-01-25T00:23:24.231Z,36.06
2023-01-25T00:24:26.536Z,34.39
2023-01-25T00:25:28.618Z,33.07
2023-01-25T00:26:32.606Z,32.66
2023-01-25T00:27:34.552Z,33.50
2023-01-25T00:28:36.998Z,32.09
2023-01-25T00:29:39.453Z,31.89
2023-01-25T00:30:41.763Z,33.13
2023-01-25T00:31:59.132Z,33.26
2023-01-25T00:33:46.182Z,31.86
2023-01-25T00:34:50.198Z,33.59
2023-01-25T00:35:57.015Z,30.49
2023-01-25T00:37:43.709Z,32.09
2023-01-25T00:38:47.865Z,30.82
2023-01-25T00:39:50.012Z,32.32
2023-01-25T00:40:51.870Z,33.05
2023-01-25T00:41:54.799Z,31.89
2023-01-25T00:42:57.130Z,31.26
2023-01-25T00:43:59.493Z,31.03
2023-01-25T00:45:01.879Z,30.16
2023-01-25T00:46:04.309Z,30.16
2023-01-25T00:47:06.778Z,29.75
2023-01-25T00:48:09.924Z,30.76
2023-01-25T00:49:24.959Z,28.96
2023-01-25T00:50:27.015Z,28.86
2023-01-25T00:51:29.108Z,31.34
2023-01-25T00:52:31.200Z,31.86
2023-01-25T00:53:34.740Z,31.50
2023-01-25T00:54:36.851Z,29.63
2023-01-25T00:55:38.784Z,27.53
2023-01-25T00:56:40.864Z,29.78
2023-01-25T00:57:42.693Z,27.57
2023-01-25T00:58:44.808Z,26.81
2023-01-25T00:59:47.653Z,26.32
2023-01-25T01:00:49.996Z,28.73
2023-01-25T01:01:54.592Z,28.44
2023-01-25T01:02:56.547Z,28.38
2023-01-25T01:03:59.013Z,29.17
2023-01-25T01:05:01.048Z,28.65
2023-01-25T01:06:07.516Z,27.13
2023-01-25T01:07:12.582Z,28.07
2023-01-25T01:08:15.989Z,27.32
2023-01-25T01:09:19.203Z,27.33
2023-01-25T01:10:21.136Z,25.53
2023-01-25T01:11:23.393Z,26.88
2023-01-25T01:12:26.242Z,27.42
2023-01-25T01:13:29.827Z,27.52
2023-01-25T01:14:32.373Z,27.10
2023-01-25T01:15:37.437Z,27.51
2023-01-25T01:16:39.749Z,26.93
2023-01-25T01:17:42.148Z,26.36
2023-01-25T01:18:46.056Z,29.93
2023-01-25T01:19:48.722Z,27.85
2023-01-25T01:20:52.145Z,27.90
2023-01-25T01:21:56.688Z,28.25
2023-01-25T01:22:58.898Z,28.69
2023-01-25T01:24:01.202Z,28.03
2023-01-25T01:25:04.070Z,27.63
2023-01-25T01:26:09.068Z,26.95
2023-01-25T01:27:11.323Z,27.76
2023-01-25T01:28:13.641Z,27.02
2023-01-25T01:29:15.782Z,28.08
2023-01-25T01:30:17.891Z,29.67
2023-01-25T01:31:24.029Z,29.01
2023-01-25T01:32:32.482Z,28.61
2023-01-25T01:33:36.002Z,27.26
2023-01-25T01:34:38.555Z,28.28
2023-01-25T01:35:40.472Z,30.58
2023-01-25T01:36:42.846Z,29.79
2023-01-25T01:37:45.335Z,28.86
2023-01-25T01:38:48.436Z,29.11
2023-01-25T01:39:52.102Z,26.78
2023-01-25T01:40:54.090Z,26.43
2023-01-25T01:41:56.264Z,26.87
2023-01-25T01:43:04.450Z,28.12
2023-01-25T01:44:07.095Z,28.92
2023-01-25T01:45:46.607Z,29.53
2023-01-25T01:46:59.948Z,28.63
2023-01-25T01:48:05.480Z,27.48
2023-01-25T01:49:13.220Z,25.99
2023-01-25T01:50:24.741Z,26.79
2023-01-25T01:51:46.348Z,28.94
2023-01-25T01:52:52.611Z,28.54
2023-01-25T01:54:01.080Z,28.54
2023-01-25T01:55:14.381Z,27.83
2023-01-25T01:56:25.683Z,26.88
2023-01-25T01:57:49.900Z,25.03
2023-01-25T01:58:55.098Z,20.12
2023-01-25T02:00:05.883Z,19.15
2023-01-25T02:01:18.954Z,19.06
2023-01-25T02:02:24.224Z,19.89
2023-01-25T02:03:28.384Z,20.12
2023-01-25T02:04:31.323Z,19.44
2023-01-25T02:05:55.297Z,20.05
2023-01-25T02:07:17.551Z,21.14
2023-01-25T02:08:25.305Z,22.81
2023-01-25T02:09:31.768Z,21.47
2023-01-25T02:10:36.744Z,19.10
2023-01-25T02:11:40.112Z,19.34
2023-01-25T02:12:44.148Z,18.32
2023-01-25T02:13:48.424Z,19.03
2023-01-25T02:14:54.195Z,17.12
2023-01-25T02:15:57.009Z,16.60
2023-01-25T02:17:00.134Z,16.93
2023-01-25T02:18:02.670Z,16.17
2023-01-25T02:19:08.078Z,16.11
2023-01-25T02:20:26.625Z,15.30
2023-01-25T02:21:39.280Z,14.46
2023-01-25T02:22:54.879Z,14.18
2023-01-25T02:24:07.789Z,14.72
2023-01-25T02:25:16.700Z,14.37
2023-01-25T02:26:19.758Z,14.97
2023-01-25T02:27:21.965Z,14.82
2023-01-25T02:28:38.990Z,14.62
2023-01-25T02:29:42.105Z,14.15
2023-01-25T02:30:45.447Z,14.21
2023-01-25T02:31:49.652Z,15.83
2023-01-25T02:32:51.724Z,14.64
2023-01-25T02:33:53.730Z,13.25
2023-01-25T02:34:55.945Z,12.68
2023-01-25T02:36:25.891Z,11.29
2023-01-25T02:37:28.238Z,11.22
2023-01-25T02:38:43.127Z,9.60
2023-01-25T02:39:45.228Z,7.42
2023-01-25T02:40:59.317Z,8.57
2023-01-25T02:42:02.979Z,8.75
2023-01-25T02:43:05.120Z,8.66
2023-01-25T02:44:15.173Z,8.67
2023-01-25T02:45:25.079Z,8.06
2023-01-25T02:46:32.307Z,7.60
2023-01-25T02:47:34.342Z,7.64
2023-01-25T02:48:37.507Z,7.82
2023-01-25T02:49:40.776Z,7.55
2023-01-25T02:50:43.049Z,8.07
2023-01-25T02:51:55.925Z,7.62
2023-01-25T02:52:58.038Z,8.22
2023-01-25T02:54:01.913Z,7.86
2023-01-25T02:55:04.475Z,7.85
2023-01-25T02:56:06.698Z,6.89
2023-01-25T02:57:08.657Z,7.26
2023-01-25T02:58:17.364Z,7.80
2023-01-25T02:59:19.456Z,7.49
2023-01-25T03:00:25.275Z,7.75
2023-01-25T03:01:28.953Z,8.03
2023-01-25T03:02:30.927Z,8.99
2023-01-25T03:03:32.795Z,9.42
2023-01-25T03:04:34.782Z,8.77
2023-01-25T03:05:37.746Z,9.19
2023-01-25T03:06:40.876Z,9.58
2023-01-25T03:07:42.910Z,10.65
2023-01-25T03:08:45.289Z,10.71
2023-01-25T03:09:48.648Z,10.53
2023-01-25T03:10:50.576Z,11.12
2023-01-25T03:11:52.833Z,11.40
2023-01-25T03:12:57.112Z,11.28
2023-01-25T03:13:59.154Z,11.23
2023-01-25T03:15:01.095Z,10.33
2023-01-25T03:16:09.823Z,10.63
2023-01-25T03:17:14.013Z,10.28
2023-01-25T03:18:16.053Z,10.08
2023-01-25T03:19:18.491Z,9.21
2023-01-25T03:20:20.376Z,10.38
2023-01-25T03:21:23.559Z,9.96
2023-01-25T03:22:25.635Z,10.25
2023-01-25T03:23:27.690Z,10.71
2023-01-25T03:24:30.627Z,10.91
2023-01-25T03:25:33.245Z,11.10
2023-01-25T03:27:03.540Z,11.11
2023-01-25T03:28:10.905Z,10.53
2023-01-25T03:29:13.991Z,10.77
2023-01-25T03:30:17.908Z,11.33
2023-01-25T03:31:20.210Z,12.92
2023-01-25T03:32:23.699Z,12.60
2023-01-25T03:33:25.606Z,12.73
2023-01-25T03:34:28.457Z,11.55
2023-01-25T03:35:31.570Z,11.44
2023-01-25T03:36:33.462Z,12.29
2023-01-25T03:37:35.397Z,12.62
2023-01-25T03:38:38.340Z,12.64
2023-01-25T03:39:41.493Z,13.01
2023-01-25T03:40:44.039Z,13.02
2023-01-25T03:41:46.659Z,12.69
2023-01-25T03:42:48.808Z,12.74
2023-01-25T03:43:51.003Z,12.55
2023-01-25T03:44:53.178Z,11.82
2023-01-25T03:46:01.079Z,11.92
2023-01-25T03:47:03.749Z,12.00
2023-01-25T03:48:06.217Z,11.85
2023-01-25T03:49:09.538Z,10.47
2023-01-25T03:50:11.960Z,10.87
2023-01-25T03:51:14.274Z,11.08
2023-01-25T03:52:16.420Z,10.57
2023-01-25T03:53:29.986Z,10.53
2023-01-25T03:54:38.150Z,10.26
2023-01-25T03:55:41.948Z,10.42
2023-01-25T03:56:45.315Z,9.69
2023-01-25T03:57:53.938Z,10.30
2023-01-25T03:58:55.901Z,10.25
2023-01-25T03:59:58.140Z,10.64
2023-01-25T04:01:02.214Z,10.61
2023-01-25T04:02:04.514Z,10.49
2023-01-25T04:03:06.611Z,10.27
2023-01-25T04:04:11.108Z,10.35
2023-01-25T04:05:17.370Z,10.14
2023-01-25T04:06:19.535Z,9.89
2023-01-25T04:07:21.466Z,8.94
2023-01-25T04:08:24.933Z,10.78
2023-01-25T04:09:27.509Z,9.97
2023-01-25T04:10:30.862Z,10.17
2023-01-25T04:11:32.946Z,10.35
2023-01-25T04:12:34.951Z,10.75
2023-01-25T04:13:38.883Z,10.61
2023-01-25T04:14:44.940Z,10.33
2023-01-25T04:15:55.665Z,10.51
2023-01-25T04:17:20.096Z,10.77
2023-01-25T04:18:28.534Z,10.80
2023-01-25T04:19:30.943Z,11.69
2023-01-25T04:20:34.787Z,10.73
2023-01-25T04:21:36.715Z,11.64
2023-01-25T04:22:38.562Z,11.39
2023-01-25T04:23:41.282Z,10.88
2023-01-25T04:24:44.106Z,9.90
2023-01-25T04:26:01.430Z,10.36
2023-01-25T04:27:05.505Z,10.96
2023-01-25T04:28:11.040Z,11.58
2023-01-25T04:29:13.071Z,10.43
2023-01-25T04:30:15.466Z,10.99
2023-01-25T04:31:18.707Z,11.19
2023-01-25T04:32:21.089Z,11.72
2023-01-25T04:33:24.676Z,11.72
2023-01-25T04:34:27.121Z,11.09
2023-01-25T04:35:29.300Z,10.60
2023-01-25T04:36:31.238Z,10.63
2023-01-25T04:37:33.381Z,12.38
2023-01-25T04:38:35.281Z,13.40
2023-01-25T04:39:37.153Z,19.23
2023-01-25T04:40:39.696Z,21.07
2023-01-25T04:41:43.721Z,19.52
2023-01-25T04:42:46.464Z,21.38
2023-01-25T04:43:48.445Z,16.51
2023-01-25T04:44:50.589Z,15.59
2023-01-25T04:45:53.259Z,16.40
2023-01-25T04:46:59.389Z,15.36
2023-01-25T04:48:04.974Z,14.38
2023-01-25T04:49:07.932Z,15.39
2023-01-25T04:50:10.626Z,15.84
2023-01-25T04:51:14.456Z,16.08
2023-01-25T04:52:17.140Z,16.19
2023-01-25T04:53:19.140Z,14.51
2023-01-25T04:54:21.368Z,14.30
2023-01-25T04:55:23.272Z,12.84
2023-01-25T04:56:26.068Z,12.41
2023-01-25T04:57:30.148Z,13.66
2023-01-25T04:58:32.694Z,13.35
2023-01-25T04:59:34.848Z,13.70
2023-01-25T05:00:36.950Z,13.08
2023-01-25T05:01:39.004Z,12.56
2023-01-25T05:02:42.338Z,11.36
2023-01-25T05:03:44.217Z,11.50
2023-01-25T05:04:58.906Z,12.31
2023-01-25T05:06:00.821Z,12.55
2023-01-25T05:07:03.304Z,11.53
2023-01-25T05:08:06.608Z,11.61
2023-01-25T05:09:10.313Z,11.20
2023-01-25T05:10:13.101Z,11.90
2023-01-25T05:11:22.010Z,12.52
2023-01-25T05:12:35.740Z,14.04
2023-01-25T05:13:40.471Z,12.96
2023-01-25T05:14:48.217Z,11.97
2023-01-25T05:15:50.366Z,12.00
2023-01-25T05:16:52.599Z,12.05
2023-01-25T05:17:54.637Z,12.19
2023-01-25T05:18:56.654Z,11.89
2023-01-25T05:20:06.368Z,19.27
2023-01-25T05:21:28.614Z,55.59
2023-01-25T05:22:31.233Z,85.78
2023-01-25T05:23:33.161Z,58.19
2023-01-25T05:24:36.471Z,38.98
2023-01-25T05:26:39.025Z,24.57
2023-01-25T05:27:43.005Z,19.34
2023-01-25T05:29:41.299Z,12.61
2023-01-25T05:30:43.909Z,11.52
2023-01-25T05:31:58.365Z,13.69
2023-01-25T05:33:00.354Z,14.33
2023-01-25T05:34:02.401Z,12.92
2023-01-25T05:35:05.171Z,12.71
2023-01-25T05:36:07.503Z,13.44
2023-01-25T05:37:13.637Z,13.25
2023-01-25T05:38:17.368Z,12.26
2023-01-25T05:39:19.356Z,13.40
2023-01-25T05:40:22.436Z,13.90
2023-01-25T05:41:25.328Z,14.27
2023-01-25T05:42:28.245Z,14.17
2023-01-25T05:43:30.218Z,13.31
2023-01-25T05:44:32.577Z,12.20
2023-01-25T05:45:35.004Z,13.16
2023-01-25T05:46:37.749Z,14.39
2023-01-25T05:47:39.767Z,14.20
2023-01-25T05:48:41.772Z,13.69
2023-01-25T05:49:44.635Z,12.89
2023-01-25T05:50:51.343Z,12.78
2023-01-25T05:51:56.146Z,12.94
2023-01-25T05:52:58.157Z,12.02
2023-01-25T05:54:00.151Z,12.48
2023-01-25T05:55:03.173Z,13.22
2023-01-25T05:56:07.618Z,13.75
2023-01-25T05:57:09.975Z,13.67
2023-01-25T05:58:12.569Z,14.16
2023-01-25T05:59:14.648Z,16.29
2023-01-25T06:00:17.231Z,14.97
2023-01-25T06:01:19.272Z,14.62
2023-01-25T06:02:23.078Z,14.31
2023-01-25T06:03:25.291Z,15.66
2023-01-25T06:04:27.350Z,15.28
2023-01-25T06:05:29.348Z,15.68
2023-01-25T06:06:31.533Z,14.78
2023-01-25T06:07:36.469Z,14.44
2023-01-25T06:08:38.479Z,14.12
2023-01-25T06:09:41.039Z,14.13
2023-01-25T06:10:43.096Z,14.22
2023-01-25T06:11:46.135Z,14.43
2023-01-25T06:12:48.726Z,14.03
2023-01-25T06:13:51.396Z,13.18
2023-01-25T06:14:54.018Z,13.43
2023-01-25T06:15:57.317Z,13.04
2023-01-25T06:17:17.742Z,13.75
2023-01-25T06:18:39.637Z,13.88
2023-01-25T06:19:47.967Z,14.52
2023-01-25T06:21:37.227Z,14.75
2023-01-25T06:22:39.286Z,14.47
2023-01-25T06:23:42.068Z,15.79
2023-01-25T06:24:45.753Z,15.86
2023-01-25T06:25:47.755Z,14.41
2023-01-25T06:26:49.642Z,15.45
2023-01-25T06:27:51.425Z,15.93
2023-01-25T06:28:53.576Z,15.42
2023-01-25T06:29:55.842Z,14.40
2023-01-25T06:31:05.666Z,15.56
2023-01-25T06:32:07.665Z,16.09
2023-01-25T06:33:09.780Z,14.81
2023-01-25T06:34:11.849Z,15.50
2023-01-25T06:35:14.055Z,16.11
2023-01-25T06:36:18.817Z,14.17
2023-01-25T06:37:23.142Z,13.68
2023-01-25T06:38:25.183Z,13.16
2023-01-25T06:39:27.104Z,11.11
2023-01-25T06:40:29.514Z,11.78
2023-01-25T06:41:31.376Z,11.35
2023-01-25T06:42:33.438Z,12.05
2023-01-25T06:43:35.630Z,10.90
2023-01-25T06:44:37.615Z,10.67
2023-01-25T06:45:39.689Z,10.94
2023-01-25T06:46:42.109Z,10.94
2023-01-25T06:47:44.331Z,11.28
2023-01-25T06:48:46.155Z,10.74
2023-01-25T06:49:48.372Z,11.06
2023-01-25T06:50:58.654Z,10.85
2023-01-25T06:52:01.485Z,11.60
2023-01-25T06:53:03.464Z,11.65
2023-01-25T06:54:05.407Z,11.66
2023-01-25T06:55:10.336Z,12.04
2023-01-25T06:56:14.056Z,11.35
2023-01-25T06:57:16.280Z,10.38
2023-01-25T06:58:18.456Z,10.63
2023-01-25T06:59:21.249Z,10.34
2023-01-25T07:00:23.952Z,9.20
2023-01-25T07:01:30.509Z,8.69
2023-01-25T07:02:32.959Z,8.09
2023-01-25T07:03:35.587Z,9.95
2023-01-25T07:04:37.899Z,9.03
2023-01-25T07:05:40.049Z,8.82
2023-01-25T07:06:41.867Z,8.19
2023-01-25T07:07:46.833Z,8.59
2023-01-25T07:08:49.573Z,9.46
2023-01-25T07:09:51.518Z,9.70
2023-01-25T07:10:58.379Z,10.08
2023-01-25T07:12:02.363Z,9.83
2023-01-25T07:13:04.684Z,9.94
2023-01-25T07:14:07.781Z,10.46
2023-01-25T07:15:10.758Z,10.41
2023-01-25T07:16:16.739Z,9.75
2023-01-25T07:17:18.930Z,11.02
2023-01-25T07:18:21.184Z,12.82
2023-01-25T07:19:23.489Z,17.03
2023-01-25T07:20:26.029Z,20.30
2023-01-25T07:21:28.208Z,20.34
2023-01-25T07:22:30.219Z,17.80
2023-01-25T07:23:34.736Z,17.78
2023-01-25T07:24:37.224Z,16.83
2023-01-25T07:25:47.641Z,15.95
2023-01-25T07:26:50.053Z,19.46
2023-01-25T07:27:52.356Z,45.33
2023-01-25T07:28:57.242Z,35.85
2023-01-25T07:29:59.489Z,38.66
2023-01-25T07:31:06.413Z,25.24
2023-01-25T07:32:09.617Z,14.14
2023-01-25T07:33:12.302Z,16.12
2023-01-25T07:34:14.338Z,22.94
2023-01-25T07:35:16.895Z,16.13
2023-01-25T07:36:19.383Z,10.45
2023-01-25T07:37:21.440Z,10.22
2023-01-25T07:38:23.417Z,10.39
2023-01-25T07:39:25.514Z,11.74
2023-01-25T07:40:28.002Z,11.94
2023-01-25T07:41:30.265Z,16.02
2023-01-25T07:42:32.409Z,13.59
2023-01-25T07:43:48.105Z,12.93
2023-01-25T07:44:57.051Z,11.22
2023-01-25T07:46:04.144Z,8.86
2023-01-25T07:47:06.157Z,8.61
2023-01-25T07:48:10.951Z,9.30
2023-01-25T07:49:12.831Z,11.47
2023-01-25T07:50:15.069Z,12.28
2023-01-25T07:51:23.214Z,11.32
2023-01-25T07:52:25.517Z,10.15
2023-01-25T07:53:27.493Z,10.46
2023-01-25T07:54:30.037Z,10.16
2023-01-25T07:55:31.929Z,10.43
2023-01-25T07:56:41.067Z,9.49
2023-01-25T07:57:43.111Z,7.84
2023-01-25T07:58:45.922Z,8.66
2023-01-25T07:59:47.812Z,8.44
2023-01-25T08:00:49.637Z,8.36
2023-01-25T08:01:51.628Z,11.70
2023-01-25T08:02:53.846Z,8.90
2023-01-25T08:03:57.203Z,6.94
2023-01-25T08:04:59.375Z,6.95
2023-01-25T08:06:01.449Z,8.58
2023-01-25T08:07:04.521Z,7.73
2023-01-25T08:08:06.727Z,6.73
2023-01-25T08:09:14.248Z,6.11
2023-01-25T08:10:16.770Z,6.08
2023-01-25T08:11:23.199Z,5.82
2023-01-25T08:12:28.111Z,6.40
2023-01-25T08:13:30.112Z,10.46
2023-01-25T08:14:32.100Z,13.59
2023-01-25T08:15:34.190Z,10.04
2023-01-25T08:16:35.984Z,8.61
2023-01-25T08:17:37.867Z,7.83
2023-01-25T08:18:40.031Z,7.85
2023-01-25T08:19:41.863Z,9.69
2023-01-25T08:20:43.640Z,7.88
2023-01-25T08:21:45.584Z,6.92
2023-01-25T08:22:47.745Z,6.43
2023-01-25T08:23:50.152Z,7.70
2023-01-25T08:24:52.154Z,7.69
2023-01-25T08:25:54.065Z,8.00
2023-01-25T08:26:55.975Z,14.09
2023-01-25T08:27:57.872Z,14.47
2023-01-25T08:29:00.512Z,13.61
2023-01-25T08:30:02.764Z,10.24
2023-01-25T08:31:10.070Z,10.66
2023-01-25T08:32:12.229Z,10.48
2023-01-25T08:33:14.144Z,10.32
2023-01-25T08:34:16.394Z,9.14
2023-01-25T08:35:18.231Z,8.78
2023-01-25T08:36:24.144Z,8.73
2023-01-25T08:37:29.656Z,8.87
2023-01-25T08:38:31.905Z,9.25
2023-01-25T08:39:34.304Z,9.29
2023-01-25T08:40:38.361Z,11.42
2023-01-25T08:41:42.278Z,9.49
2023-01-25T08:42:44.216Z,8.79
2023-01-25T08:43:47.456Z,9.44
2023-01-25T08:44:49.583Z,11.23
2023-01-25T08:45:58.053Z,21.65
2023-01-25T08:47:00.001Z,27.79
2023-01-25T08:48:01.993Z,17.13
2023-01-25T08:49:04.933Z,14.58
2023-01-25T08:50:08.778Z,11.06
2023-01-25T08:51:13.889Z,9.54
2023-01-25T08:52:16.346Z,8.51
2023-01-25T08:53:19.051Z,9.18
2023-01-25T08:54:20.927Z,9.31
2023-01-25T08:55:22.881Z,9.35
2023-01-25T08:56:24.827Z,14.37
2023-01-25T08:57:26.905Z,19.29
2023-01-25T08:58:29.723Z,17.20
2023-01-25T08:59:31.843Z,14.29
2023-01-25T09:00:36.068Z,14.55
2023-01-25T09:01:37.907Z,12.45
2023-01-25T09:02:39.852Z,11.39
2023-01-25T09:03:44.815Z,11.69
2023-01-25T09:04:46.867Z,11.83
2023-01-25T09:05:49.058Z,11.84
2023-01-25T09:06:50.863Z,10.78
2023-01-25T09:07:52.730Z,10.67
2023-01-25T09:08:54.536Z,10.04
2023-01-25T09:09:56.400Z,9.71
2023-01-25T09:11:03.239Z,9.45
2023-01-25T09:12:06.372Z,10.17
2023-01-25T09:13:08.880Z,9.93
2023-01-25T09:14:11.058Z,9.48
2023-01-25T09:15:12.979Z,9.50
2023-01-25T09:16:30.806Z,10.08
2023-01-25T09:17:32.757Z,10.49
2023-01-25T09:18:36.582Z,9.54
2023-01-25T09:19:38.476Z,9.70
2023-01-25T09:20:40.582Z,10.73
2023-01-25T09:21:42.597Z,11.01
2023-01-25T09:22:44.525Z,10.90
2023-01-25T09:24:05.076Z,10.05
2023-01-25T09:25:09.347Z,9.22
2023-01-25T09:26:12.486Z,9.41
2023-01-25T09:27:14.402Z,8.52
2023-01-25T09:28:16.739Z,8.48
2023-01-25T09:29:18.760Z,8.38
2023-01-25T09:30:23.318Z,8.46
2023-01-25T09:31:29.548Z,8.49
2023-01-25T09:32:34.512Z,9.45
2023-01-25T09:33:38.330Z,7.80
2023-01-25T09:34:40.092Z,6.87
2023-01-25T09:35:48.173Z,8.59
2023-01-25T09:36:49.966Z,7.70
2023-01-25T09:37:52.916Z,7.16
2023-01-25T09:38:55.865Z,7.14
2023-01-25T09:39:57.686Z,7.22
2023-01-25T09:41:22.049Z,7.00
2023-01-25T09:42:48.947Z,6.59
2023-01-25T09:44:25.368Z,8.01
2023-01-25T09:45:36.496Z,7.00
2023-01-25T09:46:41.241Z,7.86
2023-01-25T09:47:57.809Z,9.95
2023-01-25T09:49:30.720Z,7.47
2023-01-25T09:50:38.423Z,7.22
2023-01-25T09:51:49.325Z,7.58
2023-01-25T09:53:07.122Z,7.44
2023-01-25T09:54:11.104Z,8.35
2023-01-25T09:55:17.433Z,9.23
2023-01-25T09:56:22.406Z,12.41
2023-01-25T09:57:33.504Z,9.82
2023-01-25T09:58:43.244Z,9.02
2023-01-25T09:59:50.152Z,9.67
2023-01-25T10:01:38.180Z,9.31
2023-01-25T10:02:54.529Z,8.28
2023-01-25T10:04:02.807Z,8.30
2023-01-25T10:05:18.045Z,9.48
2023-01-25T10:06:26.322Z,9.67
2023-01-25T10:07:47.813Z,9.49
2023-01-25T10:09:08.389Z,8.85
2023-01-25T10:10:41.538Z,9.07
2023-01-25T10:11:45.389Z,9.21
2023-01-25T10:12:47.458Z,8.34
2023-01-25T10:13:49.549Z,8.28
2023-01-25T10:14:52.597Z,8.72
2023-01-25T10:16:03.071Z,8.80
2023-01-25T10:17:39.530Z,9.24
2023-01-25T10:19:07.643Z,9.78
2023-01-25T10:20:31.449Z,10.95
2023-01-25T10:21:45.961Z,10.76
2023-01-25T10:23:19.760Z,10.91
2023-01-25T10:24:46.570Z,10.36
2023-01-25T10:26:07.340Z,10.85
2023-01-25T10:27:43.707Z,10.74
2023-01-25T10:29:23.535Z,11.59
2023-01-25T10:30:42.684Z,9.08
2023-01-25T10:31:53.639Z,8.84
2023-01-25T10:33:02.189Z,8.64
2023-01-25T10:34:19.257Z,7.85
2023-01-25T10:35:35.460Z,8.03
2023-01-25T10:36:39.229Z,8.62
2023-01-25T10:37:42.064Z,8.85
2023-01-25T10:38:47.227Z,8.68
2023-01-25T10:40:01.326Z,8.23
2023-01-25T10:41:32.854Z,9.25
2023-01-25T10:42:43.506Z,8.94
2023-01-25T10:43:45.422Z,8.07
2023-01-25T10:44:47.474Z,7.99
2023-01-25T10:45:50.824Z,9.02
2023-01-25T10:47:17.664Z,8.89
2023-01-25T10:48:24.195Z,9.80
2023-01-25T10:49:47.443Z,9.48
2023-01-25T10:50:53.224Z,9.97
2023-01-25T10:51:56.037Z,9.52
2023-01-25T10:52:59.083Z,9.88
2023-01-25T10:54:04.250Z,8.55
2023-01-25T10:55:26.397Z,8.99
2023-01-25T10:56:30.403Z,9.75
2023-01-25T10:57:34.854Z,10.39
2023-01-25T10:58:38.221Z,10.23
2023-01-25T10:59:40.429Z,11.44
2023-01-25T11:00:43.309Z,10.98
2023-01-25T11:01:45.211Z,9.90
2023-01-25T11:02:48.283Z,10.07
2023-01-25T11:03:50.377Z,10.26
2023-01-25T11:04:52.287Z,10.01
2023-01-25T11:05:56.820Z,10.39
2023-01-25T11:07:00.459Z,10.98
2023-01-25T11:08:31.971Z,10.31
2023-01-25T11:09:37.612Z,11.47
2023-01-25T11:10:46.352Z,11.73
2023-01-25T11:11:56.560Z,11.33
2023-01-25T11:13:20.869Z,10.69
2023-01-25T11:14:28.979Z,11.62
2023-01-25T11:15:31.109Z,14.80
2023-01-25T11:16:38.810Z,17.34
2023-01-25T11:17:40.967Z,13.89
2023-01-25T11:18:52.326Z,11.61
2023-01-25T11:20:20.017Z,11.71
2023-01-25T11:21:25.842Z,12.21
2023-01-25T11:22:28.759Z,13.15
2023-01-25T11:23:34.585Z,13.96
2023-01-25T11:24:37.565Z,13.40
2023-01-25T11:25:39.685Z,15.39
2023-01-25T11:26:41.970Z,18.82
2023-01-25T11:27:43.920Z,16.13
2023-01-25T11:28:50.448Z,15.00
2023-01-25T11:30:20.922Z,15.98
2023-01-25T11:31:24.170Z,12.35
2023-01-25T11:32:26.240Z,11.58
2023-01-25T11:33:30.429Z,12.29
2023-01-25T11:34:32.628Z,13.39
2023-01-25T11:35:46.167Z,12.27
2023-01-25T11:36:58.907Z,13.83
2023-01-25T11:38:11.489Z,12.90
2023-01-25T11:39:16.237Z,15.86
2023-01-25T11:40:33.337Z,14.70
2023-01-25T11:41:59.293Z,13.62
2023-01-25T11:43:24.828Z,13.53
2023-01-25T11:44:41.753Z,14.10
2023-01-25T11:46:01.959Z,16.44
2023-01-25T11:47:13.946Z,16.22
2023-01-25T11:48:43.709Z,17.01
2023-01-25T11:50:24.027Z,17.62
2023-01-25T11:51:59.767Z,17.25
2023-01-25T11:53:34.657Z,14.03
2023-01-25T11:55:08.372Z,13.67
2023-01-25T11:56:18.875Z,15.92
2023-01-25T11:57:33.277Z,15.62
2023-01-25T11:59:06.309Z,16.06
2023-01-25T12:00:55.195Z,15.75
2023-01-25T12:02:20.018Z,16.25
2023-01-25T12:04:00.381Z,17.39
2023-01-25T12:05:16.283Z,15.29
2023-01-25T12:06:43.389Z,16.12
2023-01-25T12:08:04.244Z,16.82
2023-01-25T12:09:44.196Z,16.44
2023-01-25T12:11:04.455Z,15.29
2023-01-25T12:12:37.266Z,13.89
2023-01-25T12:14:03.177Z,14.21
2023-01-25T12:15:45.615Z,12.64
2023-01-25T12:17:26.060Z,17.23
2023-01-25T12:18:46.672Z,21.57
2023-01-25T12:20:10.127Z,17.00
2023-01-25T12:21:34.735Z,15.23
2023-01-25T12:22:58.234Z,15.39
2023-01-25T12:24:26.077Z,14.88
2023-01-25T12:25:58.149Z,13.89
2023-01-25T12:27:26.619Z,15.52
2023-01-25T12:28:37.617Z,14.98
2023-01-25T12:29:48.240Z,17.54
2023-01-25T12:31:02.082Z,16.33
2023-01-25T12:32:38.546Z,16.87
2023-01-25T12:34:03.521Z,17.95
2023-01-25T12:35:34.689Z,17.92
2023-01-25T12:36:48.716Z,18.09
2023-01-25T12:37:56.994Z,17.31
2023-01-25T12:39:07.251Z,17.60
2023-01-25T12:40:51.374Z,17.16
2023-01-25T12:42:13.237Z,14.60
2023-01-25T12:43:36.028Z,13.48
2023-01-25T12:44:50.049Z,15.01
2023-01-25T12:45:55.154Z,15.65
2023-01-25T12:47:30.142Z,16.81
2023-01-25T12:48:41.426Z,16.64
2023-01-25T12:50:09.708Z,16.86
2023-01-25T12:51:14.240Z,17.13
2023-01-25T12:52:28.072Z,17.89
2023-01-25T12:53:37.654Z,17.84
2023-01-25T12:54:44.680Z,18.74
2023-01-25T12:55:48.949Z,18.68
2023-01-25T12:57:05.177Z,19.30
2023-01-25T12:58:45.628Z,18.59
2023-01-25T13:00:19.045Z,17.88
2023-01-25T13:02:06.406Z,17.92
2023-01-25T13:03:36.839Z,16.76
2023-01-25T13:05:15.618Z,17.98
2023-01-25T13:06:36.953Z,18.40
2023-01-25T13:08:05.665Z,15.38
2023-01-25T13:09:14.100Z,16.03
2023-01-25T13:10:29.441Z,26.59
2023-01-25T13:11:40.585Z,23.01
2023-01-25T13:12:56.423Z,25.88
2023-01-25T13:14:26.111Z,43.66
2023-01-25T13:15:37.227Z,16.89
2023-01-25T13:17:10.053Z,15.49
2023-01-25T13:18:28.114Z,14.95
2023-01-25T13:19:30.006Z,26.81
2023-01-25T13:20:41.281Z,15.67
2023-01-25T13:21:45.573Z,15.62
2023-01-25T13:22:52.186Z,17.05
2023-01-25T13:24:13.357Z,18.12
2023-01-25T13:25:27.295Z,17.10
2023-01-25T13:26:29.193Z,15.06
2023-01-25T13:27:35.814Z,18.47
2023-01-25T13:28:46.672Z,16.84
2023-01-25T13:30:14.948Z,22.02
2023-01-25T13:31:55.876Z,16.38
2023-01-25T13:33:07.364Z,16.03
2023-01-25T13:34:13.302Z,20.73
2023-01-25T13:35:35.405Z,19.11
2023-01-25T13:36:40.535Z,17.57
2023-01-25T13:37:42.683Z,14.83
2023-01-25T13:38:44.620Z,14.32
2023-01-25T13:39:58.343Z,15.55
2023-01-25T13:41:12.357Z,21.50
2023-01-25T13:42:31.361Z,15.76
2023-01-25T13:43:33.269Z,19.31
2023-01-25T13:44:40.928Z,19.70
2023-01-25T13:45:45.006Z,15.38
2023-01-25T13:46:46.927Z,15.60
2023-01-25T13:48:11.101Z,15.75
2023-01-25T13:49:24.764Z,14.94
2023-01-25T13:50:32.864Z,14.39
2023-01-25T13:51:40.896Z,14.13
2023-01-25T13:52:59.871Z,13.10
2023-01-25T13:54:02.093Z,13.73
2023-01-25T13:55:18.534Z,12.42
2023-01-25T13:56:32.858Z,18.73
2023-01-25T13:57:34.932Z,13.77
2023-01-25T13:58:48.096Z,16.19
2023-01-25T14:00:09.920Z,16.91
2023-01-25T14:01:23.739Z,14.46
2023-01-25T14:02:28.244Z,15.35
2023-01-25T14:03:36.188Z,24.40
2023-01-25T14:04:38.246Z,24.94
2023-01-25T14:05:40.372Z,21.99
2023-01-25T14:06:42.376Z,22.93
2023-01-25T14:07:49.440Z,22.63
2023-01-25T14:08:55.036Z,24.59
2023-01-25T14:09:58.293Z,31.48
2023-01-25T14:11:00.610Z,20.83
2023-01-25T14:12:08.155Z,18.68
2023-01-25T14:13:15.031Z,15.75
2023-01-25T14:14:20.838Z,14.67
2023-01-25T14:15:30.333Z,14.16
2023-01-25T14:16:32.474Z,14.72
2023-01-25T14:17:34.731Z,19.99
2023-01-25T14:18:38.753Z,65.17
2023-01-25T14:19:44.645Z,44.48
2023-01-25T14:20:50.155Z,35.62
2023-01-25T14:22:11.315Z,19.48
2023-01-25T14:23:30.693Z,20.74
2023-01-25T14:24:33.213Z,13.70
2023-01-25T14:25:35.261Z,13.65
2023-01-25T14:26:41.953Z,13.18
2023-01-25T14:27:46.319Z,13.64
2023-01-25T14:29:01.114Z,13.89
2023-01-25T14:30:05.455Z,14.50
2023-01-25T14:31:25.025Z,16.13
2023-01-25T14:32:28.095Z,41.23
2023-01-25T14:33:44.609Z,43.67
2023-01-25T14:35:02.077Z,66.06
2023-01-25T14:36:24.110Z,31.46
2023-01-25T14:37:27.384Z,22.86
2023-01-25T14:38:37.926Z,36.00
2023-01-25T14:39:39.766Z,47.27